Hauptseite
METAR-TAF:

METAR-TAF

Flughäfen :

Flughafen Toulouse-Blagnac

Toulouse, Frankreich

Breite: 43-38N, Länge: 001-22E, Höhe: 152 m

Beobachtung

Neuester Wetterbericht von vor 20 Minuten, um 19:00 UTC
Wind 3 kt aus unterschiedlichen Richtungen
Temperatur 33°C
Luftfeuchtigkeit 21%
Luftdruck 1014 hPa
Sichtweite 10 km oder mehr
keine Wolken unter 1500 m und keine Kumulonimbus oder Gewitterwolken

METAR: LFBO 061900Z AUTO VRB03KT CAVOK 33/08 Q1014 NOSIG

Zeit: 21:20 (19:20 UTC)

Prognose

Neuester Wetterbericht von vor 2 Stunden und 20 Minuten, um 17:00 UTC
Gültige Prognose vom 06 um 18 UTC bis 07 um 24 UTC
Wind 3 kt aus unterschiedlichen Richtungen
Sichtweite 10 km oder mehr
keine Wolken unter 1500 m und keine Kumulonimbus oder Gewitterwolken
Übergehend zu
vom 07 um 07 UTC bis 07 um 09 UTC
Wind 12 kt aus Südost

TAF: LFBO 061700Z 0618/0724 VRB03KT CAVOK BECMG 0707/0709 14012KT

Wetterbeobachtungen und Prognosen von mehr als 4000 Flughäfen (METAR und TAF Bericht).

Die verfügbaren Stationen werden durch gelbe und rote Markierungen auf der Karte dargestellt.

Führen Sie die Maus auf sie, um den Namen der Station zu sehen.

Darauf klicken, um die Beobachtung von Wetterbeobachtungen und Prognosen zu sehen.

Um die Karte zu ändern : klicken Sie auf den grünen Tasten mit einem schwarzen Kreuz Zum Vergrößern, auf den grünen Button mit einem Gedankenstrich zu verkleinern, oder auf die grünen Pfeile für benachbarte Karten.


METAR-TAF: